Time;durP1;ratioP1;P1;durP2;ratioP2;P2;SDS_P1;SDS_P2;PMS_P1;PMS_P2;Temp;Humidity;BMP_temperature;BMP_pressure;BME280_temperature;BME280_humidity;BME280_pressure;Samples;Min_cycle;Max_cycle;Signal;HPM_P1;HPM_P2
2023/07/19 00:01:28;;;;;;;1999.90;999.90;;;;;;;23.82;100.00;95166.50;5083737;28;20200;-70
2023/07/19 00:03:53;;;;;;;1999.90;999.90;;;;;;;22.98;100.00;95074.22;5084354;28;20161;-71
2023/07/19 00:06:19;;;;;;;1999.90;999.90;;;;;;;22.88;100.00;95075.63;5083708;28;20230;-72
2023/07/19 00:08:44;;;;;;;1999.90;999.90;;;;;;;22.89;100.00;95066.00;5083747;28;20191;-71
2023/07/19 00:11:09;;;;;;;1999.90;999.90;;;;;;;23.02;100.00;95074.75;5083626;28;20176;-72
2023/07/19 00:13:35;;;;;;;1999.90;999.90;;;;;;;23.02;100.00;95046.91;5084153;28;20162;-72
2023/07/19 00:16:00;;;;;;;1999.90;999.90;;;;;;;23.01;100.00;95042.59;5083855;28;20173;-72
2023/07/19 00:18:25;;;;;;;1999.90;999.90;;;;;;;22.98;100.00;95058.25;5084350;28;20164;-72
2023/07/19 00:20:51;;;;;;;1999.90;999.90;;;;;;;22.98;100.00;95068.66;5084045;28;20189;-72
2023/07/19 00:23:16;;;;;;;1999.90;999.90;;;;;;;22.96;100.00;95057.22;5083586;28;20237;-72
2023/07/19 00:25:42;;;;;;;1999.90;999.90;;;;;;;22.94;100.00;95045.81;5083523;28;20169;-71
2023/07/19 00:28:07;;;;;;;1999.90;999.90;;;;;;;22.90;100.00;95039.69;5083613;28;20169;-71
2023/07/19 00:30:32;;;;;;;1999.90;999.90;;;;;;;22.76;100.00;95030.16;5083458;28;20180;-71
2023/07/19 00:32:58;;;;;;;1999.90;999.90;;;;;;;22.68;100.00;95022.75;5083483;28;20166;-72
2023/07/19 00:35:23;;;;;;;1999.90;999.90;;;;;;;22.73;100.00;95020.03;5083520;28;20196;-71
2023/07/19 00:37:48;;;;;;;1999.90;999.90;;;;;;;22.83;100.00;95026.22;5083494;28;20238;-71
2023/07/19 00:40:14;;;;;;;1999.90;999.90;;;;;;;22.91;100.00;95030.06;5084168;28;20172;-72
2023/07/19 00:42:39;;;;;;;1999.90;999.90;;;;;;;22.95;100.00;95036.19;5083978;28;20166;-72
2023/07/19 00:45:05;;;;;;;1999.90;999.90;;;;;;;22.96;100.00;95021.00;5083316;28;20173;-71
2023/07/19 00:47:33;;;;;;;1999.90;999.90;;;;;;;22.89;100.00;95021.44;5086233;28;20176;-71
2023/07/19 00:49:58;;;;;;;1999.90;999.90;;;;;;;22.84;100.00;95024.94;5087668;28;20165;-71
2023/07/19 00:52:24;;;;;;;1999.90;999.90;;;;;;;22.76;100.00;95046.13;5086802;28;20212;-72
2023/07/19 00:54:49;;;;;;;1999.90;999.90;;;;;;;22.76;100.00;95046.88;5087573;28;20202;-71
2023/07/19 00:57:15;;;;;;;1999.90;999.90;;;;;;;22.75;100.00;95050.16;5086950;28;20180;-71
2023/07/19 00:59:40;;;;;;;1999.90;999.90;;;;;;;22.72;100.00;95040.03;5087507;28;20189;-71
2023/07/19 01:02:06;;;;;;;1999.90;999.90;;;;;;;22.73;100.00;95020.03;5087366;28;20215;-72
2023/07/19 01:04:32;;;;;;;1999.90;999.90;;;;;;;22.63;100.00;95015.09;5086877;28;20165;-73
2023/07/19 01:06:58;;;;;;;1999.90;999.90;;;;;;;22.60;100.00;95021.66;5087268;28;20254;-74
2023/07/19 01:09:24;;;;;;;1999.90;999.90;;;;;;;22.54;100.00;95035.50;5087009;28;20174;-73
2023/07/19 01:11:50;;;;;;;1999.90;999.90;;;;;;;22.51;100.00;95041.28;5086748;28;20196;-71
2023/07/19 01:14:15;;;;;;;1999.90;999.90;;;;;;;22.50;100.00;95034.97;5087219;28;20165;-71
2023/07/19 01:16:40;;;;;;;1999.90;999.90;;;;;;;22.48;100.00;95058.97;5086942;28;20176;-74
2023/07/19 01:19:09;;;;;;;1999.90;999.90;;;;;;;22.42;100.00;95051.31;5086829;28;20165;-74
2023/07/19 01:21:34;;;;;;;1999.90;999.90;;;;;;;22.38;100.00;95017.34;5086375;28;20260;-74
2023/07/19 01:23:59;;;;;;;1999.90;999.90;;;;;;;22.34;100.00;95025.16;5086617;28;20177;-74
2023/07/19 01:26:25;;;;;;;1999.90;999.90;;;;;;;22.42;100.00;95040.16;5086944;28;20173;-74
2023/07/19 01:28:50;;;;;;;1999.90;999.90;;;;;;;22.42;100.00;95042.94;5086135;28;20170;-74
2023/07/19 01:31:15;;;;;;;1999.90;999.90;;;;;;;22.30;100.00;94999.53;5086875;28;20169;-74
2023/07/19 01:33:41;;;;;;;1999.90;999.90;;;;;;;22.03;100.00;94988.06;5086331;28;20193;-74
2023/07/19 01:36:07;;;;;;;1999.90;999.90;;;;;;;21.98;100.00;94984.00;5086470;28;20232;-73
2023/07/19 01:38:33;;;;;;;1999.90;999.90;;;;;;;22.00;100.00;94970.34;5086750;28;20196;-74
2023/07/19 01:40:58;;;;;;;1999.90;999.90;;;;;;;21.95;100.00;94968.25;5086098;28;20247;-74
2023/07/19 01:43:23;;;;;;;1999.90;999.90;;;;;;;21.90;100.00;94973.75;5086257;28;20178;-75
2023/07/19 01:45:49;;;;;;;1999.90;999.90;;;;;;;21.89;100.00;94981.31;5086112;28;20169;-75
2023/07/19 01:48:14;;;;;;;1999.90;999.90;;;;;;;21.87;100.00;94967.16;5085994;28;20170;-75
2023/07/19 01:50:40;;;;;;;1999.90;999.90;;;;;;;21.83;100.00;94958.25;5086500;28;20173;-73
2023/07/19 01:53:06;;;;;;;1999.90;999.90;;;;;;;21.78;100.00;94955.41;5085987;28;20231;-75
2023/07/19 01:55:31;;;;;;;1999.90;999.90;;;;;;;21.75;100.00;94959.91;5086023;28;20170;-75
2023/07/19 01:57:56;;;;;;;1999.90;999.90;;;;;;;21.73;100.00;94970.00;5085907;28;20241;-74
2023/07/19 02:00:22;;;;;;;1999.90;999.90;;;;;;;21.66;100.00;94962.81;5085352;28;20195;-74
2023/07/19 02:02:47;;;;;;;1999.90;999.90;;;;;;;21.43;100.00;94960.97;5086123;28;20165;-75
2023/07/19 02:05:12;;;;;;;1999.90;999.90;;;;;;;21.30;100.00;94934.75;5085732;28;20195;-74
2023/07/19 02:07:38;;;;;;;1999.90;999.90;;;;;;;21.35;100.00;94937.59;5085630;28;20244;-74
2023/07/19 02:10:04;;;;;;;1999.90;999.90;;;;;;;21.22;100.00;94947.50;5085317;28;20173;-76
2023/07/19 02:12:29;;;;;;;1999.90;999.90;;;;;;;21.08;100.00;94923.31;5085222;28;20174;-75
2023/07/19 02:14:55;;;;;;;1999.90;999.90;;;;;;;20.98;100.00;94914.34;5085869;28;20245;-75
2023/07/19 02:17:20;;;;;;;1999.90;999.90;;;;;;;20.91;100.00;94902.84;5085692;28;20169;-76
2023/07/19 02:19:46;;;;;;;1999.90;999.90;;;;;;;20.84;100.00;94892.13;5085330;28;20219;-73
2023/07/19 02:22:12;;;;;;;1999.90;999.90;;;;;;;20.96;100.00;94883.53;5085107;28;20197;-75
2023/07/19 02:24:37;;;;;;;1999.90;999.90;;;;;;;20.94;100.00;94874.91;5085202;28;20174;-75
2023/07/19 02:27:03;;;;;;;1999.90;999.90;;;;;;;20.94;100.00;94874.91;5085834;28;20240;-77
2023/07/19 02:29:28;;;;;;;1999.90;999.90;;;;;;;20.77;100.00;94865.53;5085280;28;20180;-76
2023/07/19 02:31:54;;;;;;;1999.90;999.90;;;;;;;20.80;100.00;94861.03;5085223;28;20176;-77
2023/07/19 02:34:20;;;;;;;1999.90;999.90;;;;;;;20.80;100.00;94836.06;5085050;28;20170;-75
2023/07/19 02:36:48;;;;;;;1999.90;999.90;;;;;;;20.85;100.00;94836.13;5085166;28;20176;-73
2023/07/19 02:39:13;;;;;;;1999.90;999.90;;;;;;;20.81;100.00;94824.47;5085074;28;20176;-74
2023/07/19 02:41:38;;;;;;;1999.90;999.90;;;;;;;20.79;100.00;94826.94;5084688;28;20193;-74
2023/07/19 02:44:04;;;;;;;1999.90;999.90;;;;;;;20.79;100.00;94835.28;5085724;28;20213;-74
2023/07/19 02:46:29;;;;;;;1999.90;999.90;;;;;;;20.73;100.00;94815.00;5084838;28;20177;-74
2023/07/19 02:48:55;;;;;;;1999.90;999.90;;;;;;;20.56;100.00;94788.25;5085404;28;20237;-74
2023/07/19 02:51:21;;;;;;;1999.90;999.90;;;;;;;20.57;100.00;94762.78;5084806;28;20177;-74
2023/07/19 02:53:47;;;;;;;1999.90;999.90;;;;;;;20.60;100.00;94745.19;5084852;28;20224;-74
2023/07/19 02:56:12;;;;;;;1999.90;999.90;;;;;;;20.58;100.00;94742.13;5085178;28;20244;-72
2023/07/19 02:58:38;;;;;;;1999.90;999.90;;;;;;;20.58;100.00;94741.38;5084603;28;20176;-72
2023/07/19 03:01:04;;;;;;;1999.90;999.90;;;;;;;20.61;100.00;94727.28;5084473;28;20203;-73
2023/07/19 03:03:29;;;;;;;1999.90;999.90;;;;;;;20.57;100.00;94718.41;5085135;28;20204;-71
2023/07/19 03:05:54;;;;;;;1999.90;999.90;;;;;;;20.44;100.00;94698.56;5084595;28;20187;-71
2023/07/19 03:08:20;;;;;;;1999.90;999.90;;;;;;;20.45;100.00;94677.09;5084216;28;20173;-71
2023/07/19 03:10:45;;;;;;;1999.90;999.90;;;;;;;20.46;100.00;94656.44;5083838;28;20170;-71
2023/07/19 03:13:10;;;;;;;1999.90;999.90;;;;;;;20.46;100.00;94646.09;5083959;28;20162;-71
2023/07/19 03:15:36;;;;;;;1999.90;999.90;;;;;;;20.44;100.00;94659.72;5084109;28;20195;-73
2023/07/19 03:18:03;;;;;;;1999.90;999.90;;;;;;;20.44;100.00;94643.06;5084307;28;20226;-71
2023/07/19 03:20:30;;;;;;;1999.90;999.90;;;;;;;20.42;100.00;94634.47;5084164;28;20169;-71
2023/07/19 03:22:56;;;;;;;1999.90;999.90;;;;;;;20.43;100.00;94618.59;5084188;28;20170;-71
2023/07/19 03:25:23;;;;;;;1999.90;999.90;;;;;;;20.45;100.00;94621.63;5084762;28;20169;-71
2023/07/19 03:27:49;;;;;;;1999.90;999.90;;;;;;;20.46;100.00;94607.25;5084721;28;20165;-71
2023/07/19 03:30:14;;;;;;;1999.90;999.90;;;;;;;20.47;100.00;94608.78;5084160;28;20237;-71
2023/07/19 03:32:40;;;;;;;1999.90;999.90;;;;;;;20.43;100.00;94585.28;5084701;28;20173;-71
2023/07/19 03:35:06;;;;;;;1999.90;999.90;;;;;;;20.41;100.00;94562.81;5084590;28;20169;-71
2023/07/19 03:37:34;;;;;;;1999.90;999.90;;;;;;;20.42;100.00;94545.69;5084507;28;20218;-71
2023/07/19 03:39:59;;;;;;;1999.90;999.90;;;;;;;20.40;100.00;94536.34;5084514;28;20165;-71
2023/07/19 03:42:25;;;;;;;1999.90;999.90;;;;;;;20.45;100.00;94511.44;5084453;28;20212;-74
2023/07/19 03:44:50;;;;;;;1999.90;999.90;;;;;;;20.45;100.00;94516.97;5083989;28;20192;-75
2023/07/19 03:47:16;;;;;;;1999.90;999.90;;;;;;;20.46;100.00;94496.28;5084354;28;20169;-75
2023/07/19 03:49:42;;;;;;;1999.90;999.90;;;;;;;20.42;100.00;94492.97;5084050;28;20169;-75
2023/07/19 03:52:07;;;;;;;1999.90;999.90;;;;;;;20.54;100.00;94466.84;5084203;28;20174;-75
2023/07/19 03:54:33;;;;;;;1999.90;999.90;;;;;;;20.65;100.00;94475.28;5084241;28;20180;-75
2023/07/19 03:56:58;;;;;;;1999.90;999.90;;;;;;;20.75;100.00;94484.97;5083783;28;20172;-72
2023/07/19 03:59:23;;;;;;;1999.90;999.90;;;;;;;20.87;100.00;94514.34;5083738;28;20228;-72
2023/07/19 04:01:49;;;;;;;1999.90;999.90;;;;;;;21.01;100.00;94540.53;5083838;28;20201;-73
2023/07/19 04:04:14;;;;;;;1999.90;999.90;;;;;;;21.11;100.00;94562.06;5084170;28;20169;-71
2023/07/19 04:06:39;;;;;;;1999.90;999.90;;;;;;;21.23;100.00;94594.25;5083765;28;20166;-71
2023/07/19 04:09:05;;;;;;;1999.90;999.90;;;;;;;21.36;100.00;94611.28;5084255;28;20223;-72
2023/07/19 04:11:30;;;;;;;1999.90;999.90;;;;;;;21.42;100.00;94631.53;5084517;28;20195;-72
2023/07/19 04:13:55;;;;;;;1999.90;999.90;;;;;;;21.54;100.00;94644.28;5084035;28;20173;-71
2023/07/19 04:16:23;;;;;;;1999.90;999.90;;;;;;;21.60;100.00;94661.75;5083687;28;20204;-72
2023/07/19 04:18:49;;;;;;;1999.90;999.90;;;;;;;21.70;100.00;94679.78;5084098;28;20170;-72
2023/07/19 04:21:14;;;;;;;1999.90;999.90;;;;;;;21.96;100.00;94719.47;5083692;28;20223;-72
2023/07/19 04:23:39;;;;;;;1999.90;999.90;;;;;;;22.32;100.00;94760.47;5087704;28;20189;-72
2023/07/19 04:26:05;;;;;;;1999.90;999.90;;;;;;;22.51;100.00;94797.09;5087834;28;20172;-71
2023/07/19 04:28:33;;;;;;;1999.90;999.90;;;;;;;22.77;100.00;94824.84;5087585;28;20169;-72
2023/07/19 04:30:59;;;;;;;1999.90;999.90;;;;;;;23.00;100.00;94859.94;5088023;28;20207;-70
2023/07/19 04:33:24;;;;;;;1999.90;999.90;;;;;;;23.29;100.00;94887.53;5087472;28;20203;-72
2023/07/19 04:35:50;;;;;;;1999.90;999.90;;;;;;;23.62;100.00;94910.00;5087394;28;20161;-70
2023/07/19 04:38:16;;;;;;;1999.90;999.90;;;;;;;23.81;100.00;94927.84;5087447;28;20239;-73
2023/07/19 04:40:41;;;;;;;1999.90;999.90;;;;;;;24.03;100.00;94947.50;5087773;28;20204;-72
2023/07/19 04:43:07;;;;;;;1999.90;999.90;;;;;;;24.17;100.00;94966.06;5087252;28;20180;-73
2023/07/19 04:45:32;;;;;;;1999.90;999.90;;;;;;;24.41;100.00;94977.59;5087083;28;20165;-72
2023/07/19 04:47:58;;;;;;;1999.90;999.90;;;;;;;24.77;100.00;95001.84;5087649;28;20171;-71
2023/07/19 04:50:24;;;;;;;1999.90;999.90;;;;;;;25.04;100.00;95012.28;5087868;28;20240;-73
2023/07/19 04:52:50;;;;;;;1999.90;999.90;;;;;;;25.08;100.00;95026.75;5086784;28;20235;-71
2023/07/19 04:55:16;;;;;;;1999.90;999.90;;;;;;;25.21;100.00;95041.03;5087180;28;20177;-70
2023/07/19 04:57:41;;;;;;;1999.90;999.90;;;;;;;25.67;100.00;95049.69;5086922;28;20228;-70
2023/07/19 05:00:11;;;;;;;1999.90;999.90;;;;;;;25.83;100.00;95062.91;5086743;28;20216;-72
2023/07/19 05:02:40;;;;;;;1999.90;999.90;;;;;;;26.10;100.00;95073.31;5087265;28;20201;-71
2023/07/19 05:05:07;;;;;;;1999.90;999.90;;;;;;;26.19;100.00;95067.47;5086813;28;20165;-72
2023/07/19 05:07:36;;;;;;;1999.90;999.90;;;;;;;26.38;100.00;95070.44;5087215;28;20192;-72
2023/07/19 05:10:03;;;;;;;1999.90;999.90;;;;;;;26.41;100.00;95067.41;5086391;28;20176;-72
2023/07/19 05:12:29;;;;;;;1999.90;999.90;;;;;;;26.37;100.00;95078.09;5086523;28;20219;-70
2023/07/19 05:14:55;;;;;;;1999.90;999.90;;;;;;;26.67;100.00;95073.44;5086768;28;20255;-71
2023/07/19 05:17:20;;;;;;;1999.90;999.90;;;;;;;26.67;100.00;95079.03;5087042;28;20173;-70
2023/07/19 05:19:46;;;;;;;1999.90;999.90;;;;;;;27.06;100.00;95099.22;5086556;28;20165;-71
2023/07/19 05:22:11;;;;;;;1999.90;999.90;;;;;;;27.50;100.00;95093.38;5086311;28;20197;-70
2023/07/19 05:24:37;;;;;;;1999.90;999.90;;;;;;;27.94;100.00;95086.69;5086924;28;20176;-73
2023/07/19 05:27:03;;;;;;;1999.90;999.90;;;;;;;27.40;100.00;95111.81;5086532;28;20189;-73
2023/07/19 05:29:28;;;;;;;1999.90;999.90;;;;;;;26.85;100.00;95122.53;5086367;28;20264;-76
2023/07/19 05:31:54;;;;;;;1999.90;999.90;;;;;;;26.65;100.00;95098.41;5086544;28;20161;-70
2023/07/19 05:34:20;;;;;;;1999.90;999.90;;;;;;;26.60;100.00;95095.63;5085135;28;20192;-71
2023/07/19 05:36:45;;;;;;;1999.90;999.90;;;;;;;27.17;100.00;95099.16;5086197;28;20165;-70
2023/07/19 05:39:10;;;;;;;1999.90;999.90;;;;;;;27.52;100.00;95113.25;5086614;28;20192;-70
2023/07/19 05:41:36;;;;;;;1999.90;999.90;;;;;;;27.91;100.00;95118.59;5085903;28;20204;-70
2023/07/19 05:44:01;;;;;;;1999.90;999.90;;;;;;;28.46;100.00;95114.53;5086547;28;20175;-73
2023/07/19 05:46:27;;;;;;;1999.90;999.90;;;;;;;28.97;100.00;95113.41;5085902;28;20180;-72
2023/07/19 05:48:52;;;;;;;1999.90;999.90;;;;;;;29.82;100.00;95104.84;5085970;28;20200;-72
2023/07/19 05:51:17;;;;;;;1999.90;999.90;;;;;;;29.86;100.00;95102.47;5085817;28;20176;-64
2023/07/19 05:53:43;;;;;;;1999.90;999.90;;;;;;;29.91;100.00;95104.44;5086310;28;20244;-65
2023/07/19 05:56:08;;;;;;;1999.90;999.90;;;;;;;30.66;100.00;95100.78;5085496;28;20173;-66
2023/07/19 05:58:34;;;;;;;1999.90;999.90;;;;;;;31.27;100.00;95112.94;5085845;28;20173;-66
2023/07/19 06:00:59;;;;;;;1999.90;999.90;;;;;;;31.55;100.00;95122.31;5085518;28;20261;-66
2023/07/19 06:03:25;;;;;;;1999.90;999.90;;;;;;;31.73;100.00;95129.88;5085603;28;20177;-65
2023/07/19 06:05:50;;;;;;;1999.90;999.90;;;;;;;31.02;100.00;95143.44;5085574;28;20162;-66
2023/07/19 06:08:15;;;;;;;1999.90;999.90;;;;;;;31.08;100.00;95149.75;5085967;28;20162;-66
2023/07/19 06:10:41;;;;;;;1999.90;999.90;;;;;;;29.77;100.00;95133.84;5085455;28;20188;-66
2023/07/19 06:13:06;;;;;;;1999.90;999.90;;;;;;;29.60;100.00;95141.81;5085108;28;20161;-67
2023/07/19 06:15:32;;;;;;;1999.90;999.90;;;;;;;30.41;100.00;95146.66;5085252;28;20194;-66
2023/07/19 06:17:58;;;;;;;1999.90;999.90;;;;;;;29.95;100.00;95139.44;5085458;28;20161;-65
2023/07/19 06:20:24;;;;;;;1999.90;999.90;;;;;;;29.40;100.00;95145.13;5085728;28;20204;-65
2023/07/19 06:22:49;;;;;;;1999.90;999.90;;;;;;;30.06;100.00;95147.72;5085322;28;20200;-66
2023/07/19 06:25:15;;;;;;;1999.90;999.90;;;;;;;29.41;100.00;95141.00;5085268;28;20166;-64
2023/07/19 06:27:41;;;;;;;1999.90;999.90;;;;;;;29.39;100.00;95137.97;5085175;28;20169;-65
2023/07/19 06:30:10;;;;;;;1999.90;999.90;;;;;;;30.22;100.00;95145.94;5085084;28;20215;-65
2023/07/19 06:32:36;;;;;;;1999.90;999.90;;;;;;;31.14;100.00;95144.75;5084729;28;20208;-65
2023/07/19 06:35:02;;;;;;;1999.90;999.90;;;;;;;31.56;100.00;95152.06;5084855;28;20169;-65
2023/07/19 06:37:27;;;;;;;1999.90;999.90;;;;;;;32.07;100.00;95150.41;5084762;28;20244;-65
2023/07/19 06:39:53;;;;;;;1999.90;999.90;;;;;;;32.68;100.00;95149.63;5084930;28;20207;-65
2023/07/19 06:42:18;;;;;;;1999.90;999.90;;;;;;;33.20;100.00;95145.63;5085112;28;20193;-64
2023/07/19 06:44:44;;;;;;;1999.90;999.90;;;;;;;33.71;100.00;95144.38;5084496;28;20191;-64
2023/07/19 06:47:09;;;;;;;1999.90;999.90;;;;;;;33.28;100.00;95155.69;5084754;28;20169;-65
2023/07/19 06:49:34;;;;;;;1999.90;999.90;;;;;;;33.32;100.00;95156.09;5085242;28;20169;-64
2023/07/19 06:52:00;;;;;;;1999.90;999.90;;;;;;;32.45;100.00;95157.16;5084477;28;20211;-65
2023/07/19 06:54:25;;;;;;;1999.90;999.90;;;;;;;31.85;100.00;95159.41;5084942;28;20173;-68
2023/07/19 06:56:50;;;;;;;1999.90;999.90;;;;;;;31.10;100.00;95155.63;5085158;28;20236;-65
2023/07/19 06:59:16;;;;;;;1999.90;999.90;;;;;;;30.69;100.00;95161.00;5084790;28;20318;-65
2023/07/19 07:01:41;;;;;;;1999.90;999.90;;;;;;;30.44;100.00;95156.81;5085005;28;20197;-65
2023/07/19 07:04:09;;;;;;;1999.90;999.90;;;;;;;29.88;100.00;95161.84;5084962;28;20161;-66
2023/07/19 07:06:35;;;;;;;1999.90;999.90;;;;;;;29.71;100.00;95164.91;5084409;28;20165;-65
2023/07/19 07:09:00;;;;;;;1999.90;999.90;;;;;;;29.83;100.00;95160.63;5085142;28;20168;-65
2023/07/19 07:11:25;;;;;;;1999.90;999.90;;;;;;;29.63;100.00;95168.88;5084843;28;20495;-66
2023/07/19 07:13:51;;;;;;;1999.90;999.90;;;;;;;29.72;100.00;95176.94;5084779;28;20162;-65
2023/07/19 07:16:16;;;;;;;1999.90;999.90;;;;;;;30.00;100.00;95168.81;5084742;28;20171;-65
2023/07/19 07:18:41;;;;;;;1999.90;999.90;;;;;;;30.71;100.00;95175.34;5083917;28;20166;-64
2023/07/19 07:21:07;;;;;;;1999.90;999.90;;;;;;;31.81;100.00;95186.47;5084820;28;20189;-66
2023/07/19 07:23:32;;;;;;;1999.90;999.90;;;;;;;33.29;100.00;95191.19;5084748;28;20161;-65
2023/07/19 07:25:58;;;;;;;1999.90;999.90;;;;;;;33.96;100.00;95192.09;5084459;28;20161;-65
2023/07/19 07:28:23;;;;;;;1999.90;999.90;;;;;;;33.50;100.00;95194.72;5084410;28;20169;-65
2023/07/19 07:30:49;;;;;;;1999.90;999.90;;;;;;;33.00;100.00;95189.69;5084110;28;20244;-65
2023/07/19 07:33:14;;;;;;;1999.90;999.90;;;;;;;34.09;100.00;95200.47;5084041;28;20164;-65
2023/07/19 07:35:39;;;;;;;1999.90;999.90;;;;;;;34.18;96.22;95194.22;5084280;28;20161;-65
2023/07/19 07:38:05;;;;;;;1999.90;999.90;;;;;;;34.30;96.43;95181.22;5083995;28;20157;-66
2023/07/19 07:40:30;;;;;;;1999.90;999.90;;;;;;;35.52;83.74;95189.91;5083706;28;20224;-65
2023/07/19 07:42:55;;;;;;;1999.90;999.90;;;;;;;34.54;87.22;95189.97;5083854;28;20173;-66
2023/07/19 07:45:21;;;;;;;1999.90;999.90;;;;;;;34.24;91.91;95186.31;5084318;28;20169;-65
2023/07/19 07:47:46;;;;;;;1999.90;999.90;;;;;;;34.29;90.22;95185.34;5083934;28;20165;-67
2023/07/19 07:50:12;;;;;;;1999.90;999.90;;;;;;;33.99;92.14;95179.63;5083851;28;20169;-64
2023/07/19 07:52:37;;;;;;;1999.90;999.90;;;;;;;34.90;91.36;95181.28;5083962;28;20220;-65
2023/07/19 07:55:05;;;;;;;1999.90;999.90;;;;;;;36.51;76.46;95183.16;5083730;28;20237;-64
2023/07/19 07:57:33;;;;;;;1999.90;999.90;;;;;;;36.81;73.39;95191.50;5083171;28;20188;-65
2023/07/19 07:59:58;;;;;;;1999.90;999.90;;;;;;;36.93;67.20;95180.38;5083729;28;20200;-65
2023/07/19 08:02:24;;;;;;;1999.90;999.90;;;;;;;36.64;67.50;95180.03;5083658;28;20196;-65
2023/07/19 08:04:49;;;;;;;1999.90;999.90;;;;;;;37.95;62.44;95180.47;5083720;28;20195;-65
2023/07/19 08:07:15;;;;;;;1999.90;999.90;;;;;;;37.57;58.02;95188.72;5084164;28;20279;-65
2023/07/19 08:09:40;;;;;;;1999.90;999.90;;;;;;;38.14;55.83;95184.22;5083911;28;20169;-65
2023/07/19 08:12:06;;;;;;;1999.90;999.90;;;;;;;37.94;53.57;95185.41;5084011;28;20165;-65
2023/07/19 08:14:31;;;;;;;1999.90;999.90;;;;;;;37.99;56.44;95170.13;5084233;28;20184;-65
2023/07/19 08:16:56;;;;;;;1999.90;999.90;;;;;;;38.16;56.23;95163.66;5084037;28;20189;-65
2023/07/19 08:19:22;;;;;;;1999.90;999.90;;;;;;;38.35;50.44;95167.34;5083940;28;20176;-64
2023/07/19 08:21:47;;;;;;;1999.90;999.90;;;;;;;39.01;50.91;95151.88;5083295;28;20197;-66
2023/07/19 08:24:13;;;;;;;1999.90;999.90;;;;;;;39.22;49.49;95143.47;5083903;28;20255;-65
2023/07/19 08:26:39;;;;;;;1999.90;999.90;;;;;;;40.02;43.83;95148.78;5083677;28;20169;-65
2023/07/19 08:29:05;;;;;;;1999.90;999.90;;;;;;;39.62;44.69;95137.19;5083111;28;20176;-65
2023/07/19 08:31:30;;;;;;;1999.90;999.90;;;;;;;40.27;42.27;95138.47;5083450;28;20244;-65
2023/07/19 08:33:55;;;;;;;1999.90;999.90;;;;;;;39.64;43.01;95143.06;5083856;28;20165;-65
2023/07/19 08:36:21;;;;;;;1999.90;999.90;;;;;;;38.47;45.69;95130.44;5084345;28;20270;-64
2023/07/19 08:38:47;;;;;;;1999.90;999.90;;;;;;;37.33;47.31;95133.28;5083951;28;20232;-64
2023/07/19 08:41:16;;;;;;;1999.90;999.90;;;;;;;36.87;50.24;95132.19;5083888;28;20189;-65
2023/07/19 08:43:44;;;;;;;1999.90;999.90;;;;;;;37.89;45.23;95134.31;5083297;28;20225;-65
2023/07/19 08:46:14;;;;;;;1999.90;999.90;;;;;;;36.96;49.50;95134.38;5083852;28;20165;-65
2023/07/19 08:48:44;;;;;;;1999.90;999.90;;;;;;;35.39;53.21;95130.47;5083352;28;20174;-65
2023/07/19 08:51:12;;;;;;;1999.90;999.90;;;;;;;36.08;53.29;95133.16;5083811;28;20161;-65
2023/07/19 08:53:37;;;;;;;1999.90;999.90;;;;;;;37.06;50.19;95129.53;5083197;28;20201;-65
2023/07/19 08:56:04;;;;;;;1999.90;999.90;;;;;;;36.96;50.33;95137.22;5083333;28;20303;-64
2023/07/19 08:58:29;;;;;;;1999.90;999.90;;;;;;;36.32;52.77;95131.69;5083692;28;20165;-64
2023/07/19 09:00:54;;;;;;;1999.90;999.90;;;;;;;36.22;52.32;95142.16;5083204;28;20260;-64
2023/07/19 09:03:20;;;;;;;1999.90;999.90;;;;;;;35.77;52.05;95136.75;5082965;28;20161;-64
2023/07/19 09:05:46;;;;;;;1999.90;999.90;;;;;;;36.39;53.19;95128.03;5083449;28;20219;-64
2023/07/19 09:08:15;;;;;;;1999.90;999.90;;;;;;;37.03;48.89;95142.09;5084682;28;20165;-64
2023/07/19 09:10:45;;;;;;;1999.90;999.90;;;;;;;37.20;47.42;95150.69;5087541;28;20170;-64
2023/07/19 09:13:10;;;;;;;1999.90;999.90;;;;;;;36.32;50.13;95154.47;5086607;28;20188;-64
2023/07/19 09:15:36;;;;;;;1999.90;999.90;;;;;;;36.37;48.61;95153.47;5087171;28;20188;-65
2023/07/19 09:18:04;;;;;;;1999.90;999.90;;;;;;;36.83;47.27;95154.66;5086650;28;20165;-64
2023/07/19 09:20:29;;;;;;;1999.90;999.90;;;;;;;36.88;45.79;95156.50;5086954;28;20169;-64
2023/07/19 09:22:57;;;;;;;1999.90;999.90;;;;;;;37.94;42.84;95162.56;5086947;28;20166;-64
2023/07/19 09:25:23;;;;;;;1999.90;999.90;;;;;;;38.31;41.65;95160.56;5086437;28;20165;-64
2023/07/19 09:27:48;;;;;;;1999.90;999.90;;;;;;;38.66;41.70;95157.00;5086496;28;20169;-66
2023/07/19 09:30:14;;;;;;;1999.90;999.90;;;;;;;38.32;42.31;95162.84;5086979;28;20169;-65
2023/07/19 09:32:40;;;;;;;1999.90;999.90;;;;;;;38.60;40.29;95172.91;5087102;28;20234;-65
2023/07/19 09:35:07;;;;;;;1999.90;999.90;;;;;;;38.89;37.92;95163.06;5086742;28;20166;-65
2023/07/19 09:37:33;;;;;;;1999.90;999.90;;;;;;;38.96;36.75;95167.22;5086252;28;20178;-64
2023/07/19 09:39:59;;;;;;;1999.90;999.90;;;;;;;37.92;38.81;95171.00;5086523;28;20176;-65
2023/07/19 09:42:25;;;;;;;1999.90;999.90;;;;;;;39.09;37.64;95158.19;5086568;28;20262;-65
2023/07/19 09:44:53;;;;;;;1999.90;999.90;;;;;;;38.88;37.17;95167.28;5086590;28;20169;-64
2023/07/19 09:47:19;;;;;;;1999.90;999.90;;;;;;;38.88;37.88;95173.00;5086084;28;20173;-64
2023/07/19 09:49:44;;;;;;;1999.90;999.90;;;;;;;37.98;40.41;95151.47;5086098;28;20264;-64
2023/07/19 09:52:16;;;;;;;1999.90;999.90;;;;;;;38.33;39.02;95152.91;5085833;28;20189;-65
2023/07/19 09:54:43;;;;;;;1999.90;999.90;;;;;;;38.34;37.88;95159.41;5086357;28;20169;-64
2023/07/19 09:57:10;;;;;;;1999.90;999.90;;;;;;;37.51;41.19;95154.75;5085531;28;20169;-65
2023/07/19 09:59:40;;;;;;;1999.90;999.90;;;;;;;37.03;44.53;95155.63;5085814;28;20200;-65
2023/07/19 10:02:06;;;;;;;1999.90;999.90;;;;;;;37.48;44.20;95153.06;5085595;28;20207;-63
2023/07/19 10:04:39;;;;;;;1999.90;999.90;;;;;;;37.34;43.94;95148.28;5085662;28;20177;-63
2023/07/19 10:07:05;;;;;;;1999.90;999.90;;;;;;;37.53;44.65;95151.28;5085689;28;20161;-63
2023/07/19 10:09:32;;;;;;;1999.90;999.90;;;;;;;38.24;41.97;95150.75;5086480;28;20245;-64
2023/07/19 10:12:04;;;;;;;1999.90;999.90;;;;;;;37.15;43.58;95145.97;5086084;28;20165;-64
2023/07/19 10:14:32;;;;;;;1999.90;999.90;;;;;;;36.30;47.17;95148.59;5086119;28;20162;-64
2023/07/19 10:17:03;;;;;;;1999.90;999.90;;;;;;;37.01;45.91;95144.78;5085423;28;20164;-64
2023/07/19 10:19:28;;;;;;;1999.90;999.90;;;;;;;37.50;43.86;95141.06;5085475;28;20168;-63
2023/07/19 10:22:07;;;;;;;1999.90;999.90;;;;;;;37.11;44.55;95133.50;5085692;28;20212;-63
2023/07/19 10:24:37;;;;;;;1999.90;999.90;;;;;;;37.62;42.78;95142.84;5085654;28;20165;-63
2023/07/19 10:27:04;;;;;;;1999.90;999.90;;;;;;;37.99;41.70;95141.59;5085478;28;20166;-63
2023/07/19 10:29:44;;;;;;;1999.90;999.90;;;;;;;37.18;42.80;95133.44;5085459;28;20173;-64
2023/07/19 10:32:10;;;;;;;1999.90;999.90;;;;;;;36.46;44.19;95144.31;5085657;28;20169;-63
2023/07/19 10:34:36;;;;;;;1999.90;999.90;;;;;;;36.78;45.06;95124.31;5085145;28;20231;-63
2023/07/19 10:37:06;;;;;;;1999.90;999.90;;;;;;;36.75;43.29;95125.50;5085044;28;20165;-64
2023/07/19 10:39:32;;;;;;;1999.90;999.90;;;;;;;36.94;41.72;95122.81;5085469;28;20177;-64
2023/07/19 10:41:59;;;;;;;1999.90;999.90;;;;;;;36.03;45.09;95125.59;5084819;28;20200;-63
2023/07/19 10:44:26;;;;;;;1999.90;999.90;;;;;;;35.18;46.96;95127.81;5085164;28;20165;-64